Time;durP1;ratioP1;P1;durP2;ratioP2;P2;SDS_P1;SDS_P2;PMS_P1;PMS_P2;Temp;Humidity;BMP_temperature;BMP_pressure;BME280_temperature;BME280_humidity;BME280_pressure;Samples;Min_cycle;Max_cycle;Signal;HPM_P1;HPM_P2
2022/02/07 00:00:58;;;;;;;2.53;1.50;;;;;;;5.69;68.67;91529.72;2068218;69;20148;-69
2022/02/07 00:03:45;;;;;;;3.83;1.90;;;;;;;5.75;69.00;91544.03;2071485;69;20152;-69
2022/02/07 00:06:13;;;;;;;3.50;1.80;;;;;;;5.79;67.46;91533.81;2071348;69;20227;-71
2022/02/07 00:08:39;;;;;;;7.57;1.80;;;;;;;5.65;70.69;91519.03;2070901;69;20159;-69
2022/02/07 00:11:05;;;;;;;3.28;1.85;;;;;;;5.70;70.36;91498.38;2071383;69;20227;-68
2022/02/07 00:13:30;;;;;;;3.42;1.50;;;;;;;5.65;71.65;91507.13;2071311;69;20159;-69
2022/02/07 00:15:56;;;;;;;1.80;1.48;;;;;;;5.74;70.99;91498.63;2071297;69;20156;-70
2022/02/07 00:18:23;;;;;;;3.70;1.35;;;;;;;5.75;70.11;91499.34;2071286;69;20137;-72
2022/02/07 00:20:49;;;;;;;2.42;1.48;;;;;;;5.76;70.65;91490.34;2067906;69;20136;-69
2022/02/07 00:23:15;;;;;;;3.65;1.50;;;;;;;5.19;73.52;91500.94;2071211;69;20148;-70
2022/02/07 00:25:40;;;;;;;2.17;1.55;;;;;;;5.46;72.07;91494.16;2071153;69;20538;-72
2022/02/07 00:28:06;;;;;;;4.53;2.10;;;;;;;5.34;72.14;91492.06;2070958;69;20585;-70
2022/02/07 00:30:32;;;;;;;4.28;1.90;;;;;;;5.39;71.88;91489.53;2071267;69;20603;-73
2022/02/07 00:32:58;;;;;;;3.25;1.83;;;;;;;5.65;67.62;91479.94;2068406;69;20249;-71
2022/02/07 00:35:24;;;;;;;2.83;1.58;;;;;;;5.76;69.51;91467.28;2073224;69;20168;-73
2022/02/07 00:37:53;;;;;;;3.72;1.40;;;;;;;5.77;68.90;91463.91;2072114;69;20219;-77
2022/02/07 00:48:00;;;;;;;3.80;1.58;;;;;;;5.37;72.98;91451.06;2071299;69;20600;-69
2022/02/07 00:50:30;;;;;;;3.03;1.55;;;;;;;5.59;71.56;91463.56;2067850;69;20139;-70
2022/02/07 00:52:56;;;;;;;3.70;1.63;;;;;;;5.54;71.45;91450.69;2071914;69;20171;-71
2022/02/07 00:55:22;;;;;;;2.15;1.40;;;;;;;5.56;71.40;91419.38;2068464;69;20596;-70
2022/02/07 00:57:48;;;;;;;4.10;1.45;;;;;;;5.63;71.81;91446.28;2068448;69;20164;-73
2022/02/07 01:00:15;;;;;;;3.25;1.50;;;;;;;5.35;72.27;91434.91;2068416;69;20630;-69
2022/02/07 01:02:43;;;;;;;4.22;1.50;;;;;;;5.16;74.02;91451.19;2071361;69;20140;-70
2022/02/07 01:05:10;;;;;;;3.13;1.70;;;;;;;5.27;72.03;91419.78;2068224;69;20143;-70
2022/02/07 01:07:37;;;;;;;2.65;1.08;;;;;;;5.13;74.33;91404.97;2067854;69;20176;-70
2022/02/07 01:10:05;;;;;;;4.30;1.40;;;;;;;4.87;76.05;91415.28;2068369;69;20600;-71
2022/02/07 01:46:09;;;;;;;1.55;1.20;;;;;;;5.06;75.98;91420.63;2068313;69;20148;-70
2022/02/07 01:56:08;;;;;;;1.98;1.00;;;;;;;5.15;74.26;91347.25;2068189;69;20148;-70
2022/02/07 01:58:39;;;;;;;3.30;0.93;;;;;;;4.61;79.57;91337.09;2071187;69;20148;-71
2022/02/07 02:01:06;;;;;;;3.50;1.27;;;;;;;4.74;79.39;91405.47;2070964;69;20223;-69
2022/02/07 02:03:32;;;;;;;0.90;0.80;;;;;;;5.12;75.60;91362.41;2068319;69;20608;-69
2022/02/07 02:06:02;;;;;;;1.40;1.05;;;;;;;5.23;75.53;91364.47;2071551;69;20155;-70
2022/02/07 02:08:36;;;;;;;1.00;0.90;;;;;;;5.31;75.04;91394.88;2071046;69;20148;-74
2022/02/07 02:11:02;;;;;;;2.35;1.05;;;;;;;5.02;78.03;91390.44;2068189;69;20148;-70
2022/02/07 02:16:58;;;;;;;1.23;0.73;;;;;;;5.47;73.81;91362.34;2067036;69;20172;-69
2022/02/07 02:36:25;;;;;;;0.90;0.68;;;;;;;5.04;80.60;91373.06;2068085;69;20136;-69
2022/02/07 02:47:21;;;;;;;2.75;1.50;;;;;;;5.14;79.00;91493.66;2067890;69;20618;-69
2022/02/07 02:50:03;;;;;;;1.45;0.90;;;;;;;4.68;80.78;91550.78;2068039;69;20140;-70
2022/02/07 02:52:32;;;;;;;0.20;0.20;;;;;;;4.34;78.09;91705.31;2068327;69;20152;-76
2022/02/07 02:58:39;;;;;;;0.13;0.10;;;;;;;2.72;98.25;92426.44;2043034;70;20186;-72
2022/02/07 03:01:06;;;;;;;0.68;0.20;;;;;;;2.58;100.00;92409.31;2041681;70;20245;-73
2022/02/07 03:03:58;;;;;;;0.63;0.15;;;;;;;1.76;100.00;92210.09;2043894;70;20644;-73
2022/02/07 03:06:24;;;;;;;0.10;0.10;;;;;;;1.83;100.00;92239.81;2044999;70;20135;-76
2022/02/07 03:08:50;;;;;;;0.22;0.20;;;;;;;1.31;100.00;92081.50;2044391;70;20599;-72
2022/02/07 03:11:22;;;;;;;0.10;0.10;;;;;;;0.72;100.00;91894.41;2044336;70;20613;-73
2022/02/07 03:13:53;;;;;;;0.52;0.30;;;;;;;1.25;100.00;92076.19;2044344;70;20197;-73
2022/02/07 03:16:38;;;;;;;0.68;0.57;;;;;;;1.73;100.00;92250.06;2044278;70;20139;-72
2022/02/07 03:19:10;;;;;;;0.00;0.00;;;;;;;1.58;100.00;92205.78;2047161;70;20554;-74
2022/02/07 03:21:38;;;;;;;0.20;0.20;;;;;;;1.53;100.00;92201.94;2044375;70;20614;-73
2022/02/07 03:24:05;;;;;;;0.15;0.10;;;;;;;1.64;100.00;92251.41;2047165;70;20143;-72
2022/02/07 03:26:39;;;;;;;0.20;0.20;;;;;;;1.52;100.00;92208.78;2044461;70;20592;-72
2022/02/07 03:29:08;;;;;;;0.10;0.10;;;;;;;1.85;100.00;92337.16;2044523;70;20599;-73
2022/02/07 03:31:37;;;;;;;2.85;0.60;;;;;;;1.85;100.00;92353.09;2044171;70;20143;-70
2022/02/07 03:34:03;;;;;;;0.30;0.30;;;;;;;1.21;100.00;92142.41;2044854;70;20135;-70
2022/02/07 03:36:31;;;;;;;0.50;0.50;;;;;;;1.36;100.00;92190.75;2044307;70;20252;-70
2022/02/07 03:39:00;;;;;;;1.20;1.10;;;;;;;1.73;100.00;92331.28;2047261;70;20243;-73
2022/02/07 03:41:30;;;;;;;0.65;0.65;;;;;;;1.68;100.00;92315.59;2044561;70;20599;-70
2022/02/07 03:43:56;;;;;;;0.20;0.20;;;;;;;1.56;100.00;92277.72;2044275;70;20233;-77
2022/02/07 03:46:22;;;;;;;0.85;0.30;;;;;;;1.96;100.00;92422.06;2044830;70;20555;-76
2022/02/07 03:48:48;;;;;;;1.30;1.20;;;;;;;1.54;100.00;92272.75;2044485;70;20244;-74
2022/02/07 03:51:14;;;;;;;0.60;0.60;;;;;;;1.78;100.00;92368.47;2047071;70;20147;-75
2022/02/07 03:53:43;;;;;;;1.98;0.82;;;;;;;2.08;100.00;92483.47;2044282;70;20131;-74
2022/02/07 03:56:08;;;;;;;0.88;0.82;;;;;;;2.14;100.00;92512.50;2044440;70;20219;-71
2022/02/07 03:58:38;;;;;;;2.70;1.55;;;;;;;1.68;100.00;92364.81;2044932;70;20211;-76
2022/02/07 04:01:05;;;;;;;1.67;1.05;;;;;;;1.81;100.00;92408.97;2050995;70;20138;-72
2022/02/07 04:03:44;;;;;;;0.28;0.28;;;;;;;1.12;100.00;92183.84;2047881;70;20154;-72
2022/02/07 04:06:16;;;;;;;0.13;0.13;;;;;;;1.71;100.00;92385.91;2051283;70;20176;-71
2022/02/07 04:08:48;;;;;;;0.20;0.20;;;;;;;1.90;100.00;92452.81;2048293;70;20154;-70
2022/02/07 04:11:39;;;;;;;0.20;0.20;;;;;;;2.09;100.00;92535.66;2051311;70;20229;-71
2022/02/07 04:14:05;;;;;;;0.10;0.10;;;;;;;2.04;100.00;92519.94;2047973;70;20147;-76
2022/02/07 04:16:36;;;;;;;0.20;0.20;;;;;;;1.79;100.00;92439.34;2047863;70;20565;-75
2022/02/07 04:19:23;;;;;;;0.10;0.10;;;;;;;1.84;100.00;92457.81;2051361;70;20161;-70
2022/02/07 04:21:51;;;;;;;0.70;0.70;;;;;;;1.67;100.00;92397.38;2048149;70;20154;-76
2022/02/07 04:24:32;;;;;;;1.30;1.20;;;;;;;1.90;100.00;92488.88;2048088;70;20244;-74
2022/02/07 04:27:05;;;;;;;1.08;1.00;;;;;;;1.90;100.00;92494.44;2048501;70;20166;-73
2022/02/07 04:29:32;;;;;;;0.70;0.60;;;;;;;2.03;100.00;92537.91;2048535;70;20157;-70
2022/02/07 04:32:00;;;;;;;0.35;0.35;;;;;;;2.11;100.00;92577.50;2051435;70;20146;-70
2022/02/07 04:34:25;;;;;;;0.40;0.30;;;;;;;2.09;100.00;92566.22;2048680;70;20153;-71
2022/02/07 04:36:56;;;;;;;0.40;0.40;;;;;;;1.91;100.00;92503.50;2048610;70;20185;-71
2022/02/07 04:39:22;;;;;;;0.60;0.50;;;;;;;2.10;100.00;92580.81;2048873;70;20166;-71
2022/02/07 04:41:52;;;;;;;0.60;0.20;;;;;;;2.18;100.00;92610.06;2051574;70;20261;-72
2022/02/07 04:44:24;;;;;;;0.20;0.20;;;;;;;2.00;100.00;92550.84;2048806;70;20146;-71
2022/02/07 04:47:11;;;;;;;0.20;0.20;;;;;;;2.18;100.00;92609.31;2052037;70;20149;-76
2022/02/07 04:52:55;;;;;;;0.38;0.38;;;;;;;2.02;100.00;92572.53;2052222;70;20146;-78
2022/02/07 04:57:51;;;;;;;0.40;0.40;;;;;;;1.94;100.00;92544.78;2048816;70;20142;-75
2022/02/07 05:16:07;;;;;;;0.20;0.20;;;;;;;1.78;100.00;92516.28;2048208;70;20157;-72
2022/02/07 05:18:33;;;;;;;0.55;0.32;;;;;;;1.81;100.00;92522.78;2048090;70;20190;-77
2022/02/07 05:21:19;;;;;;;1.52;0.57;;;;;;;1.84;100.00;92540.38;2048821;70;20617;-72
2022/02/07 05:24:07;;;;;;;5.05;2.45;;;;;;;1.63;100.00;92465.66;2048624;70;20625;-71
2022/02/07 05:26:51;;;;;;;4.38;1.77;;;;;;;1.75;100.00;92513.91;2048800;70;20189;-71
2022/02/07 05:29:33;;;;;;;3.50;1.90;;;;;;;1.95;100.00;92582.34;2048219;70;20177;-71
2022/02/07 05:32:18;;;;;;;14.13;6.50;;;;;;;1.90;100.00;92571.44;2048126;70;20596;-74
2022/02/07 05:35:10;;;;;;;95.97;43.47;;;;;;;1.45;100.00;92415.56;2045828;70;20187;-77
2022/02/07 05:38:09;;;;;;;41.60;19.90;;;;;;;1.82;100.00;92546.47;2044505;70;20158;-71
2022/02/07 05:40:58;;;;;;;20.08;11.05;;;;;;;1.95;100.00;92599.00;2048916;70;20526;-76
2022/02/07 05:43:33;;;;;;;10.27;5.50;;;;;;;1.84;100.00;92559.78;2048102;70;20213;-72
2022/02/07 05:46:21;;;;;;;7.45;4.07;;;;;;;1.96;100.00;92605.28;2045029;70;20177;-79
2022/02/07 05:49:05;;;;;;;5.03;2.92;;;;;;;2.07;100.00;92643.78;2048147;70;20210;-78
2022/02/07 05:51:45;;;;;;;6.82;2.40;;;;;;;1.60;100.00;92475.81;2048136;70;20154;-80
2022/02/07 05:54:29;;;;;;;2.97;1.40;;;;;;;1.24;100.00;92381.78;2048724;70;20145;-80
2022/02/07 05:57:05;;;;;;;2.45;1.50;;;;;;;1.68;100.00;92514.66;2048138;70;20157;-78
2022/02/07 05:59:41;;;;;;;2.47;1.60;;;;;;;1.74;100.00;92540.94;2050786;70;20360;-79
2022/02/07 06:02:26;;;;;;;3.55;1.90;;;;;;;1.71;100.00;92539.28;2048516;70;20240;-78
2022/02/07 06:04:57;;;;;;;4.40;2.38;;;;;;;1.78;100.00;92560.69;2048175;70;20151;-76
2022/02/07 06:07:22;;;;;;;4.18;2.10;;;;;;;1.92;100.00;92608.44;2048779;70;20139;-77
2022/02/07 06:09:48;;;;;;;4.47;2.33;;;;;;;1.85;100.00;92589.03;2048632;70;20606;-75
2022/02/07 06:12:14;;;;;;;3.70;1.50;;;;;;;1.86;100.00;92602.34;2050799;70;20158;-71
2022/02/07 06:14:41;;;;;;;3.58;1.90;;;;;;;1.97;100.00;92631.75;2048077;70;20233;-71
2022/02/07 06:17:06;;;;;;;1.40;0.85;;;;;;;1.81;100.00;92572.00;2047942;70;20239;-73
2022/02/07 06:19:33;;;;;;;10.60;7.85;;;;;;;1.68;100.00;92532.03;2048050;70;20143;-71
2022/02/07 06:21:58;;;;;;;2.55;1.58;;;;;;;1.65;100.00;92524.09;2048051;70;20142;-71
2022/02/07 06:24:25;;;;;;;1.05;0.70;;;;;;;1.72;100.00;92549.06;2048014;70;20189;-70
2022/02/07 06:26:51;;;;;;;0.82;0.60;;;;;;;1.89;100.00;92620.66;2048046;70;20554;-71
2022/02/07 06:29:20;;;;;;;0.30;0.30;;;;;;;1.85;100.00;92605.69;2047984;70;20157;-70
2022/02/07 06:31:50;;;;;;;2.20;0.50;;;;;;;1.81;100.00;92585.88;2047903;70;20158;-71
2022/02/07 06:34:17;;;;;;;1.85;0.60;;;;;;;1.90;100.00;92627.69;2047989;70;20150;-75
2022/02/07 06:36:43;;;;;;;2.60;0.70;;;;;;;2.01;100.00;92668.22;2048627;70;20151;-73
2022/02/07 06:39:10;;;;;;;0.82;0.52;;;;;;;1.94;100.00;92641.22;2048020;70;20237;-73
2022/02/07 06:41:37;;;;;;;0.40;0.40;;;;;;;2.03;100.00;92677.47;2047987;70;20514;-75
2022/02/07 06:44:05;;;;;;;0.90;0.63;;;;;;;2.03;100.00;92676.75;2047979;70;20147;-80
2022/02/07 06:46:31;;;;;;;1.45;0.50;;;;;;;2.07;100.00;92691.00;2047945;70;20210;-73
2022/02/07 06:48:58;;;;;;;0.30;0.30;;;;;;;2.12;100.00;92706.00;2047864;70;20143;-72
2022/02/07 06:51:24;;;;;;;2.17;0.60;;;;;;;2.02;100.00;92670.47;2047999;70;20157;-72
2022/02/07 06:53:53;;;;;;;1.40;0.60;;;;;;;2.08;100.00;92694.50;2048010;70;20165;-72
2022/02/07 06:56:22;;;;;;;1.60;0.70;;;;;;;2.06;100.00;92692.28;2048024;70;20150;-74
2022/02/07 06:58:49;;;;;;;3.42;0.90;;;;;;;1.96;100.00;92658.03;2048186;70;21729;-72
2022/02/07 07:01:17;;;;;;;1.75;0.60;;;;;;;1.76;100.00;92582.75;2048174;70;20161;-72
2022/02/07 07:03:45;;;;;;;1.27;0.50;;;;;;;1.70;100.00;92567.59;2048389;70;20572;-72
2022/02/07 07:06:14;;;;;;;2.55;0.80;;;;;;;1.68;100.00;92573.69;2051267;70;20139;-72
2022/02/07 07:08:54;;;;;;;2.55;1.02;;;;;;;1.97;100.00;92668.59;2048442;70;20168;-73
2022/02/07 07:11:24;;;;;;;4.75;1.45;;;;;;;1.97;100.00;92674.16;2048424;70;20146;-72
2022/02/07 07:13:56;;;;;;;0.82;0.75;;;;;;;1.84;100.00;92632.72;2048475;70;20317;-75
2022/02/07 07:18:54;;;;;;;2.50;0.90;;;;;;;1.77;100.00;92622.34;2051733;70;20688;-75
2022/02/07 07:21:20;;;;;;;1.02;0.77;;;;;;;1.28;100.00;92470.88;2048631;70;20214;-78
2022/02/07 07:23:48;;;;;;;1.42;1.00;;;;;;;1.64;100.00;92584.41;2048456;70;20173;-75
2022/02/07 07:26:14;;;;;;;0.88;0.50;;;;;;;1.09;100.00;92399.16;2045761;70;20139;-77
2022/02/07 07:28:41;;;;;;;1.10;0.38;;;;;;;1.05;100.00;92432.06;2048492;70;20150;-81
2022/02/07 07:31:10;;;;;;;0.82;0.40;;;;;;;1.26;100.00;92501.94;2048481;70;20143;-72
2022/02/07 07:33:43;;;;;;;0.70;0.60;;;;;;;1.06;100.00;92449.47;2045909;70;20134;-72
2022/02/07 07:36:09;;;;;;;5.88;1.20;;;;;;;1.04;100.00;92452.78;2051743;70;20500;-76
2022/02/07 07:38:37;;;;;;;0.60;0.60;;;;;;;0.63;100.00;92318.88;2048463;70;20146;-71
2022/02/07 07:41:03;;;;;;;0.68;0.40;;;;;;;0.66;100.00;92292.09;2048477;70;20237;-73
2022/02/07 07:43:37;;;;;;;0.82;0.70;;;;;;;0.84;100.00;92287.44;2048500;70;20205;-73
2022/02/07 07:46:29;;;;;;;0.85;0.57;;;;;;;0.80;100.00;92625.91;2046566;70;20249;-73
2022/02/07 07:49:31;;;;;;;4.57;0.70;;;;;;;0.63;100.00;92615.28;2047523;70;20599;-74
2022/02/07 07:52:12;;;;;;;4.63;2.33;;;;;;;0.93;100.00;92616.69;2048386;70;20151;-72
2022/02/07 07:55:23;;;;;;;3.10;2.00;;;;;;;0.84;100.00;92634.59;2051765;70;20232;-75
2022/02/07 08:03:27;;;;;;;0.80;0.60;;;;;;;1.44;100.00;92666.53;2048227;70;20154;-79
2022/02/07 08:06:19;;;;;;;1.85;0.50;;;;;;;1.41;100.00;92664.84;2051644;70;20143;-80
2022/02/07 08:09:03;;;;;;;1.00;0.60;;;;;;;1.69;100.00;92675.06;2048264;70;20229;-79
2022/02/07 08:11:30;;;;;;;4.65;1.02;;;;;;;1.41;100.00;92703.69;2051692;70;20162;-76
2022/02/07 08:13:59;;;;;;;0.95;0.50;;;;;;;0.92;100.00;92707.44;2048320;70;20249;-81
2022/02/07 08:16:29;;;;;;;1.00;0.80;;;;;;;1.20;97.72;92706.59;2050961;70;20161;-76
2022/02/07 08:18:59;;;;;;;2.80;0.35;;;;;;;1.24;95.84;92704.22;2048362;70;20525;-77
2022/02/07 08:21:25;;;;;;;2.53;0.50;;;;;;;1.00;84.68;92710.97;2051611;70;20170;-72
2022/02/07 08:23:50;;;;;;;1.55;0.68;;;;;;;1.60;79.89;92736.66;2051568;70;20227;-74
2022/02/07 08:26:16;;;;;;;0.65;0.30;;;;;;;1.68;76.30;92754.06;2051602;70;20612;-73
2022/02/07 08:28:41;;;;;;;3.20;0.50;;;;;;;2.01;78.93;92762.63;2051581;70;20243;-72
2022/02/07 08:31:07;;;;;;;0.95;0.43;;;;;;;2.06;82.81;92747.81;2051542;70;20142;-72
2022/02/07 08:33:33;;;;;;;1.08;0.43;;;;;;;2.02;78.18;92759.31;2051469;70;20142;-70
2022/02/07 08:35:58;;;;;;;0.85;0.50;;;;;;;2.41;82.49;92770.44;2051667;70;20238;-72
2022/02/07 08:38:24;;;;;;;4.07;0.70;;;;;;;2.48;81.98;92770.44;2048252;70;20533;-72
2022/02/07 08:40:50;;;;;;;0.30;0.30;;;;;;;2.63;82.81;92766.16;2051544;70;20246;-72
2022/02/07 08:43:16;;;;;;;1.38;0.50;;;;;;;2.74;84.54;92790.78;2051548;70;20230;-75
2022/02/07 08:45:43;;;;;;;0.73;0.63;;;;;;;2.71;84.01;92792.66;2051643;70;20517;-76
2022/02/07 08:48:10;;;;;;;1.77;0.40;;;;;;;2.74;82.02;92807.44;2051444;70;20166;-74
2022/02/07 08:50:36;;;;;;;0.70;0.50;;;;;;;2.74;82.48;92808.19;2051489;70;20138;-76
2022/02/07 08:53:04;;;;;;;1.17;0.60;;;;;;;2.85;84.33;92809.88;2051568;70;20154;-75
2022/02/07 08:55:34;;;;;;;0.57;0.50;;;;;;;2.86;83.68;92827.28;2051484;70;20761;-72
2022/02/07 08:58:05;;;;;;;0.93;0.50;;;;;;;2.85;83.63;92828.59;2051509;70;20132;-77
2022/02/07 09:08:54;;;;;;;1.95;0.65;;;;;;;3.05;83.24;92808.91;2047065;70;20134;-72
2022/02/07 09:11:20;;;;;;;0.73;0.50;;;;;;;3.62;85.01;92802.06;2051629;70;20199;-71
2022/02/07 09:13:46;;;;;;;0.95;0.60;;;;;;;3.76;84.38;92822.78;2052023;70;20146;-75
2022/02/07 09:16:29;;;;;;;3.42;0.57;;;;;;;3.64;83.52;92827.28;2052088;70;20170;-76
2022/02/07 09:18:58;;;;;;;3.92;1.40;;;;;;;2.67;79.63;92845.09;2052002;70;20146;-80
2022/02/07 09:21:25;;;;;;;1.98;0.90;;;;;;;2.91;75.93;92851.38;2051933;70;20154;-78
2022/02/07 09:23:51;;;;;;;1.85;0.90;;;;;;;2.38;70.68;92866.00;2051898;70;20197;-73
2022/02/07 09:26:17;;;;;;;0.82;0.70;;;;;;;2.87;74.41;92867.69;2051830;70;20213;-72
2022/02/07 09:28:43;;;;;;;0.77;0.50;;;;;;;2.83;75.21;92884.00;2051998;70;20241;-73
2022/02/07 09:31:10;;;;;;;1.27;0.57;;;;;;;2.78;73.06;92874.56;2052035;70;20122;-72
2022/02/07 09:33:36;;;;;;;3.05;1.55;;;;;;;2.91;77.03;92887.53;2051895;70;20154;-73
2022/02/07 09:36:02;;;;;;;1.90;0.80;;;;;;;3.05;76.29;92884.00;2051471;70;20158;-71
2022/02/07 09:38:28;;;;;;;2.70;0.90;;;;;;;3.24;76.17;92896.78;2048857;70;20146;-73
2022/02/07 09:40:54;;;;;;;1.95;0.77;;;;;;;3.24;78.53;92903.06;2052090;70;20161;-80
2022/02/07 09:43:29;;;;;;;1.48;0.60;;;;;;;3.45;79.29;92908.44;2051945;70;20142;-74
2022/02/07 09:46:04;;;;;;;1.58;0.40;;;;;;;3.38;79.71;92906.41;2052116;70;20170;-76
2022/02/07 09:48:32;;;;;;;1.63;0.60;;;;;;;3.33;79.42;92926.06;2051872;70;20150;-80
2022/02/07 09:50:58;;;;;;;1.80;0.70;;;;;;;3.38;78.84;92914.00;2051930;70;20142;-72
2022/02/07 09:53:27;;;;;;;1.00;0.70;;;;;;;3.64;76.68;92935.84;2052071;70;20242;-78
2022/02/07 09:55:54;;;;;;;2.28;0.85;;;;;;;3.64;77.06;92944.22;2051871;70;20142;-76
2022/02/07 09:58:20;;;;;;;2.80;1.80;;;;;;;3.40;77.20;92942.78;2051887;70;20147;-73
2022/02/07 10:00:46;;;;;;;4.35;1.20;;;;;;;3.43;75.77;92944.41;2051802;70;20169;-74
2022/02/07 10:03:27;;;;;;;9.20;4.05;;;;;;;3.59;75.44;92944.41;2051781;70;20182;-70
2022/02/07 10:05:58;;;;;;;5.78;3.05;;;;;;;3.75;76.90;92943.06;2051998;70;20153;-76
2022/02/07 10:11:54;;;;;;;10.63;6.05;;;;;;;4.18;75.53;92958.72;2051908;70;20138;-70
2022/02/07 10:19:08;;;;;;;2.90;1.52;;;;;;;2.91;71.77;92968.19;2051866;70;20149;-71
2022/02/07 10:22:05;;;;;;;8.00;3.85;;;;;;;3.62;74.41;92988.59;2051972;70;20146;-73
2022/02/07 10:38:25;;;;;;;4.30;2.15;;;;;;;3.12;75.50;93006.97;2051965;70;20134;-73
2022/02/07 10:46:05;;;;;;;3.67;1.90;;;;;;;3.19;89.22;93031.25;2051875;70;20146;-73
2022/02/07 10:48:36;;;;;;;2.45;1.50;;;;;;;3.16;78.38;93041.47;2051789;70;20138;-73
2022/02/07 10:51:22;;;;;;;2.42;1.90;;;;;;;2.96;77.28;93043.09;2051815;70;20651;-72
2022/02/07 10:53:53;;;;;;;4.78;2.20;;;;;;;2.13;72.81;93043.53;2051774;70;20141;-77
2022/02/07 10:56:22;;;;;;;5.90;2.10;;;;;;;1.53;75.77;93046.13;2051887;70;20161;-72
2022/02/07 10:58:54;;;;;;;4.78;2.00;;;;;;;2.31;75.98;93042.50;2051761;70;20145;-77
2022/02/07 11:04:17;;;;;;;5.05;1.58;;;;;;;3.75;75.56;93029.38;2045059;70;20253;-72
2022/02/07 11:06:49;;;;;;;3.53;1.35;;;;;;;3.86;74.56;93042.94;2052082;70;20541;-72
2022/02/07 11:09:24;;;;;;;3.17;1.40;;;;;;;4.13;75.73;93048.84;2051834;70;20570;-72
2022/02/07 11:23:25;;;;;;;5.60;2.80;;;;;;;3.89;76.43;93094.00;2051846;70;20139;-72
2022/02/07 11:26:16;;;;;;;8.35;3.30;;;;;;;3.96;76.18;93094.00;2051704;70;20150;-72
2022/02/07 11:28:43;;;;;;;8.13;3.13;;;;;;;2.84;72.53;93099.59;2051600;70;20217;-73
2022/02/07 11:31:09;;;;;;;5.20;2.20;;;;;;;3.83;76.37;93111.63;2051778;70;20174;-78
2022/02/07 11:36:34;;;;;;;5.82;2.60;;;;;;;3.77;73.87;93129.84;2051670;70;20621;-73
2022/02/07 11:39:11;;;;;;;6.22;3.20;;;;;;;4.65;76.45;93134.94;2051790;70;20143;-75
2022/02/07 11:41:55;;;;;;;6.55;3.47;;;;;;;5.00;73.36;93145.06;2051676;70;20201;-73
2022/02/07 11:44:31;;;;;;;2.03;1.10;;;;;;;4.29;67.98;93152.66;2051471;70;20133;-71
2022/02/07 11:47:12;;;;;;;1.60;1.10;;;;;;;5.83;67.09;93139.56;2051737;70;20138;-73
2022/02/07 11:49:39;;;;;;;3.15;1.35;;;;;;;5.69;72.07;93150.28;2051712;70;20168;-72
2022/02/07 11:52:26;;;;;;;2.55;1.55;;;;;;;7.21;73.48;93163.47;2051672;70;20148;-70
2022/02/07 11:54:57;;;;;;;3.17;1.60;;;;;;;7.69;68.86;93169.38;2051681;70;20642;-74
2022/02/07 11:57:34;;;;;;;2.20;1.08;;;;;;;6.09;63.79;93167.00;2051733;70;20158;-71
2022/02/07 12:00:09;;;;;;;3.97;1.30;;;;;;;5.84;65.46;93171.78;2051657;70;20190;-74
2022/02/07 12:02:36;;;;;;;2.95;1.90;;;;;;;5.25;64.38;93175.81;2051463;70;20181;-73
2022/02/07 12:05:07;;;;;;;4.28;1.90;;;;;;;6.17;69.89;93169.72;2051653;70;20138;-71
2022/02/07 12:07:37;;;;;;;3.45;1.42;;;;;;;6.95;67.27;93164.88;2051738;70;20162;-72
2022/02/07 12:12:47;;;;;;;3.38;1.67;;;;;;;6.61;65.07;93169.16;2051578;70;20138;-71
2022/02/07 12:15:15;;;;;;;3.40;1.20;;;;;;;6.66;62.36;93164.63;2051712;70;20154;-71
2022/02/07 12:17:45;;;;;;;5.13;2.28;;;;;;;6.76;60.11;93165.47;2051477;70;20145;-71
2022/02/07 12:20:19;;;;;;;7.35;3.80;;;;;;;8.10;66.18;93166.94;2051613;70;20178;-70
2022/02/07 12:22:55;;;;;;;5.90;3.47;;;;;;;8.10;62.89;93181.69;2048249;70;20218;-70
2022/02/07 12:25:23;;;;;;;4.72;2.72;;;;;;;8.53;58.89;93162.56;2051553;70;20135;-71
2022/02/07 12:27:50;;;;;;;4.78;2.22;;;;;;;7.55;58.77;93168.28;2051628;70;20490;-71
2022/02/07 12:30:29;;;;;;;3.63;1.60;;;;;;;7.93;59.40;93158.63;2051565;70;20585;-71
2022/02/07 12:32:54;;;;;;;2.20;1.17;;;;;;;7.96;59.28;93182.66;2051486;70;20168;-73
2022/02/07 12:35:24;;;;;;;3.53;1.25;;;;;;;9.32;59.17;93180.97;2048391;70;20657;-76
2022/02/07 12:37:51;;;;;;;2.80;1.10;;;;;;;8.43;57.33;93195.47;2051471;70;20216;-71
2022/02/07 12:40:17;;;;;;;3.65;0.82;;;;;;;6.87;55.93;93195.75;2051468;70;20150;-71
2022/02/07 12:42:44;;;;;;;1.50;0.90;;;;;;;7.46;60.57;93194.16;2051495;70;20249;-72
2022/02/07 12:45:10;;;;;;;2.08;0.90;;;;;;;6.52;57.93;93192.91;2051526;70;20158;-71
2022/02/07 12:47:38;;;;;;;1.98;1.00;;;;;;;5.17;60.13;93179.94;2051722;70;20233;-71
2022/02/07 12:50:09;;;;;;;2.38;1.10;;;;;;;5.81;61.56;93192.47;2052069;70;20140;-71
2022/02/07 12:52:38;;;;;;;2.03;1.35;;;;;;;6.36;61.93;93203.47;2048915;70;20142;-70
2022/02/07 12:55:07;;;;;;;1.70;1.30;;;;;;;6.82;63.00;93207.94;2052037;70;20161;-70
2022/02/07 12:57:43;;;;;;;2.38;1.70;;;;;;;5.64;58.38;93206.38;2052051;70;20197;-72
2022/02/07 13:00:12;;;;;;;3.40;2.05;;;;;;;4.61;61.30;93202.25;2051978;70;20170;-71
2022/02/07 13:02:42;;;;;;;3.78;2.33;;;;;;;4.83;63.37;93209.81;2051979;70;20324;-70
2022/02/07 13:05:12;;;;;;;5.20;2.22;;;;;;;4.80;64.17;93210.19;2052022;70;20138;-71
2022/02/07 13:07:44;;;;;;;3.53;2.00;;;;;;;5.43;64.31;93209.44;2051892;70;20147;-70
2022/02/07 13:10:13;;;;;;;3.50;1.60;;;;;;;4.46;63.83;93214.16;2051969;70;20252;-71
2022/02/07 13:15:34;;;;;;;3.17;1.80;;;;;;;5.26;64.98;93235.94;2049179;70;20134;-69
2022/02/07 13:18:06;;;;;;;3.35;1.40;;;;;;;5.57;65.55;93227.44;2051851;70;20545;-70
2022/02/07 13:20:33;;;;;;;3.55;1.58;;;;;;;5.30;63.94;93230.72;2052119;70;20147;-75
2022/02/07 13:23:28;;;;;;;3.00;1.75;;;;;;;5.59;65.88;93236.00;2048671;70;20229;-73
2022/02/07 13:25:56;;;;;;;4.45;1.02;;;;;;;5.16;63.85;93243.41;2050390;70;20147;-70
2022/02/07 13:28:28;;;;;;;2.58;1.40;;;;;;;5.55;65.02;93253.16;2051180;70;20173;-68
2022/02/07 13:31:03;;;;;;;2.80;1.38;;;;;;;4.39;62.82;93244.81;2051615;70;20160;-73
2022/02/07 13:33:28;;;;;;;2.55;1.00;;;;;;;4.79;61.64;93250.56;2051734;70;20157;-71
2022/02/07 13:35:59;;;;;;;1.98;1.25;;;;;;;4.65;63.48;93261.19;2051798;70;20164;-72
2022/02/07 13:38:25;;;;;;;2.90;1.30;;;;;;;5.08;64.75;93254.59;2051760;70;20141;-72
2022/02/07 13:40:53;;;;;;;1.70;1.13;;;;;;;4.91;62.77;93251.66;2051732;70;20265;-71
2022/02/07 13:43:27;;;;;;;2.92;0.95;;;;;;;4.44;61.91;93266.19;2051447;70;20142;-75
2022/02/07 13:45:59;;;;;;;0.82;0.60;;;;;;;3.20;60.67;93280.38;2051548;70;20261;-73
2022/02/07 13:48:26;;;;;;;1.25;0.63;;;;;;;3.21;61.53;93279.09;2051376;70;20154;-73
2022/02/07 13:50:54;;;;;;;7.25;4.15;;;;;;;4.10;63.06;93288.84;2051926;70;20226;-73
2022/02/07 13:53:21;;;;;;;1.33;1.00;;;;;;;4.10;60.74;93292.38;2052692;70;20158;-74
2022/02/07 13:55:50;;;;;;;1.20;0.80;;;;;;;4.31;64.16;93297.81;2052244;70;20145;-72
2022/02/07 13:58:19;;;;;;;2.72;1.70;;;;;;;4.49;64.08;93295.94;2052639;70;20245;-74
2022/02/07 14:00:45;;;;;;;16.88;11.18;;;;;;;4.32;64.26;93316.75;2052182;70;20157;-71
2022/02/07 14:03:18;;;;;;;3.75;2.40;;;;;;;4.26;62.99;93332.16;2051741;70;20147;-73
2022/02/07 14:05:51;;;;;;;3.05;1.58;;;;;;;4.49;65.21;93341.31;2051557;70;20165;-71
2022/02/07 14:08:38;;;;;;;2.83;1.40;;;;;;;3.91;64.80;93340.06;2051786;70;20154;-71
2022/02/07 14:11:07;;;;;;;2.08;1.35;;;;;;;3.71;65.07;93344.44;2051920;70;20229;-71
2022/02/07 14:13:34;;;;;;;7.57;5.35;;;;;;;4.03;67.00;93357.16;2051969;70;20150;-69
2022/02/07 14:16:02;;;;;;;7.60;5.00;;;;;;;3.86;66.09;93360.47;2051903;70;20165;-70
2022/02/07 14:18:30;;;;;;;1.92;1.27;;;;;;;3.84;64.11;93363.06;2051755;70;20142;-76
2022/02/07 14:20:56;;;;;;;51.50;22.05;;;;;;;3.74;63.96;93376.75;2051479;70;20240;-76
2022/02/07 14:23:21;;;;;;;8.25;3.72;;;;;;;4.10;65.79;93381.53;2051518;70;20154;-76
2022/02/07 14:25:52;;;;;;;5.50;3.72;;;;;;;4.19;66.39;93383.81;2051761;70;20142;-75
2022/02/07 14:28:18;;;;;;;2.28;1.50;;;;;;;3.94;66.46;93386.31;2052043;70;20529;-77
2022/02/07 14:30:44;;;;;;;8.63;3.90;;;;;;;3.91;65.69;93386.69;2051868;70;20600;-76
2022/02/07 14:33:10;;;;;;;4.35;1.63;;;;;;;3.98;64.47;93397.84;2051799;70;20253;-72
2022/02/07 14:35:36;;;;;;;2.33;1.40;;;;;;;3.41;64.74;93389.59;2051832;70;20590;-71
2022/02/07 14:38:05;;;;;;;1.75;1.00;;;;;;;2.80;67.28;93387.13;2048686;70;20154;-69
2022/02/07 14:40:33;;;;;;;3.33;1.10;;;;;;;3.56;70.04;93391.69;2051978;70;20142;-71
2022/02/07 14:43:01;;;;;;;1.95;1.30;;;;;;;3.01;67.28;93381.53;2051849;70;20280;-74
2022/02/07 14:45:32;;;;;;;3.72;1.90;;;;;;;3.51;68.90;93390.56;2051976;70;20582;-71